EGPD/ABZ METAR and TAF weather

Enter ICAO airport designator
Station Type Date Time Source
EGPD METAR 2022/06/30 13:20 UTC NOAA

EGPD 301320Z AUTO 15009KT 130V200 9999 BKN021/// BKN035/// //////CB 18/13 Q1008 NOSIG


Station Type Date Time Source
EGPD Decoded METAR 2022/06/30 13:20 UTC NOAA

Aberdeen / Dyce, United Kingdom (EGPD) 57-12N 002-13W 0M
Jun 30, 2022 - 09:20 AM EDT / 2022.06.30 1320 UTC
Wind: from the SSE (150 degrees) at 10 MPH (9 KT) (direction variable):0
Visibility: greater than 7 mile(s):0
Sky conditions: mostly cloudy
Weather: Cumulonimbus clouds observed
Temperature: 64 F (18 C)
Dew Point: 55 F (13 C)
Relative Humidity: 72%
Pressure (altimeter): 29.77 in. Hg (1008 hPa)
ob: EGPD 301320Z AUTO 15009KT 130V200 9999 BKN021/// BKN035/// //////CB 18/13 Q1008 NOSIG
cycle: 13

Station Type Date Time Source
EGPD TAF 2022/06/30 12:59 UTC NOAA

TAF
AMD EGPD 301155Z 3012/0112 12003KT 9999 SCT018
TEMPO 3012/3015 BKN014 PROB30
TEMPO 3012/3020 4000 SHRA
BECMG 3013/3016 18010KT
BECMG 3019/3022 30003KT PROB30 3022/3024 8000
TEMPO 0103/0112 6000 -RA BKN008 PROB30
TEMPO 0104/0109 4000 RA BKN004

Example: see airport list